sensor_id;sensor_type;location;lat;lon;timestamp;P1;durP1;ratioP1;P2;durP2;ratioP2
25758;SDS011;13604;52.496;13.456;2023-02-24T00:01:01;76.40;;;24.50;;
25758;SDS011;13604;52.496;13.456;2023-02-24T00:03:36;78.45;;;24.00;;
25758;SDS011;13604;52.496;13.456;2023-02-24T00:06:02;79.30;;;25.70;;
25758;SDS011;13604;52.496;13.456;2023-02-24T00:08:34;81.43;;;25.02;;
25758;SDS011;13604;52.496;13.456;2023-02-24T00:11:05;79.30;;;24.48;;
25758;SDS011;13604;52.496;13.456;2023-02-24T00:13:33;82.80;;;26.08;;
25758;SDS011;13604;52.496;13.456;2023-02-24T00:16:00;82.60;;;25.70;;
25758;SDS011;13604;52.496;13.456;2023-02-24T00:18:29;71.00;;;22.27;;
25758;SDS011;13604;52.496;13.456;2023-02-24T00:20:56;73.90;;;24.17;;
25758;SDS011;13604;52.496;13.456;2023-02-24T00:23:27;79.85;;;23.20;;
25758;SDS011;13604;52.496;13.456;2023-02-24T00:25:57;68.85;;;21.30;;
25758;SDS011;13604;52.496;13.456;2023-02-24T00:28:24;70.40;;;24.30;;
25758;SDS011;13604;52.496;13.456;2023-02-24T00:30:49;66.90;;;23.40;;
25758;SDS011;13604;52.496;13.456;2023-02-24T00:33:15;68.10;;;21.30;;
25758;SDS011;13604;52.496;13.456;2023-02-24T00:35:40;63.08;;;21.25;;
25758;SDS011;13604;52.496;13.456;2023-02-24T00:38:05;64.18;;;21.52;;
25758;SDS011;13604;52.496;13.456;2023-02-24T00:40:31;61.65;;;19.63;;
25758;SDS011;13604;52.496;13.456;2023-02-24T00:42:57;58.75;;;18.23;;
25758;SDS011;13604;52.496;13.456;2023-02-24T00:45:22;63.45;;;18.45;;
25758;SDS011;13604;52.496;13.456;2023-02-24T00:47:47;66.63;;;17.92;;
25758;SDS011;13604;52.496;13.456;2023-02-24T00:50:13;53.17;;;15.90;;
25758;SDS011;13604;52.496;13.456;2023-02-24T00:52:38;54.05;;;16.38;;
25758;SDS011;13604;52.496;13.456;2023-02-24T00:55:03;52.70;;;17.17;;
25758;SDS011;13604;52.496;13.456;2023-02-24T00:57:39;48.13;;;14.95;;
25758;SDS011;13604;52.496;13.456;2023-02-24T01:00:04;44.13;;;12.55;;
25758;SDS011;13604;52.496;13.456;2023-02-24T01:02:36;38.15;;;11.13;;
25758;SDS011;13604;52.496;13.456;2023-02-24T01:05:02;31.63;;;9.65;;
25758;SDS011;13604;52.496;13.456;2023-02-24T01:07:27;23.40;;;8.48;;
25758;SDS011;13604;52.496;13.456;2023-02-24T01:09:53;26.08;;;8.73;;
25758;SDS011;13604;52.496;13.456;2023-02-24T01:12:18;27.63;;;9.20;;
25758;SDS011;13604;52.496;13.456;2023-02-24T01:15:03;30.35;;;9.25;;
25758;SDS011;13604;52.496;13.456;2023-02-24T01:17:29;31.77;;;10.15;;
25758;SDS011;13604;52.496;13.456;2023-02-24T01:19:55;36.35;;;8.32;;
25758;SDS011;13604;52.496;13.456;2023-02-24T01:22:24;37.58;;;10.45;;
25758;SDS011;13604;52.496;13.456;2023-02-24T01:24:49;21.88;;;8.02;;
25758;SDS011;13604;52.496;13.456;2023-02-24T01:27:16;37.33;;;9.63;;
25758;SDS011;13604;52.496;13.456;2023-02-24T01:29:42;34.00;;;8.00;;
25758;SDS011;13604;52.496;13.456;2023-02-24T01:32:12;35.75;;;8.00;;
25758;SDS011;13604;52.496;13.456;2023-02-24T01:34:40;20.02;;;7.03;;
25758;SDS011;13604;52.496;13.456;2023-02-24T01:37:06;24.42;;;6.78;;
25758;SDS011;13604;52.496;13.456;2023-02-24T01:39:31;21.08;;;6.50;;
25758;SDS011;13604;52.496;13.456;2023-02-24T01:41:57;29.75;;;8.20;;
25758;SDS011;13604;52.496;13.456;2023-02-24T01:46:56;23.67;;;5.60;;
25758;SDS011;13604;52.496;13.456;2023-02-24T01:49:23;25.63;;;6.93;;
25758;SDS011;13604;52.496;13.456;2023-02-24T01:52:03;35.28;;;5.60;;
25758;SDS011;13604;52.496;13.456;2023-02-24T01:54:33;29.35;;;5.75;;
25758;SDS011;13604;52.496;13.456;2023-02-24T01:57:03;29.33;;;6.15;;
25758;SDS011;13604;52.496;13.456;2023-02-24T01:59:29;23.02;;;5.18;;
25758;SDS011;13604;52.496;13.456;2023-02-24T02:01:58;32.30;;;6.15;;
25758;SDS011;13604;52.496;13.456;2023-02-24T02:04:37;25.95;;;5.03;;
25758;SDS011;13604;52.496;13.456;2023-02-24T02:07:06;21.90;;;5.22;;
25758;SDS011;13604;52.496;13.456;2023-02-24T02:09:34;30.15;;;5.97;;
25758;SDS011;13604;52.496;13.456;2023-02-24T02:12:02;15.40;;;4.93;;
25758;SDS011;13604;52.496;13.456;2023-02-24T02:14:27;28.80;;;5.03;;
25758;SDS011;13604;52.496;13.456;2023-02-24T02:16:57;23.10;;;4.90;;
25758;SDS011;13604;52.496;13.456;2023-02-24T02:19:46;38.95;;;5.22;;
25758;SDS011;13604;52.496;13.456;2023-02-24T02:22:54;29.77;;;4.75;;
25758;SDS011;13604;52.496;13.456;2023-02-24T02:25:40;23.20;;;4.50;;
25758;SDS011;13604;52.496;13.456;2023-02-24T02:28:36;22.00;;;4.28;;
25758;SDS011;13604;52.496;13.456;2023-02-24T02:31:31;23.33;;;4.80;;
25758;SDS011;13604;52.496;13.456;2023-02-24T02:37:17;24.98;;;4.10;;
25758;SDS011;13604;52.496;13.456;2023-02-24T02:39:50;26.50;;;3.97;;
25758;SDS011;13604;52.496;13.456;2023-02-24T02:45:44;21.58;;;2.95;;
25758;SDS011;13604;52.496;13.456;2023-02-24T02:48:20;20.67;;;3.47;;
25758;SDS011;13604;52.496;13.456;2023-02-24T02:50:49;16.45;;;3.45;;
25758;SDS011;13604;52.496;13.456;2023-02-24T02:56:17;20.67;;;3.45;;
25758;SDS011;13604;52.496;13.456;2023-02-24T02:58:53;29.88;;;3.67;;
25758;SDS011;13604;52.496;13.456;2023-02-24T03:01:21;18.58;;;3.38;;
25758;SDS011;13604;52.496;13.456;2023-02-24T03:03:56;26.42;;;2.92;;
25758;SDS011;13604;52.496;13.456;2023-02-24T03:06:32;13.23;;;2.35;;
25758;SDS011;13604;52.496;13.456;2023-02-24T03:09:02;13.43;;;2.97;;
25758;SDS011;13604;52.496;13.456;2023-02-24T03:11:35;19.25;;;3.38;;
25758;SDS011;13604;52.496;13.456;2023-02-24T03:14:02;21.73;;;2.70;;
25758;SDS011;13604;52.496;13.456;2023-02-24T03:16:30;20.08;;;2.95;;
25758;SDS011;13604;52.496;13.456;2023-02-24T03:18:58;15.02;;;3.22;;
25758;SDS011;13604;52.496;13.456;2023-02-24T03:21:32;19.05;;;3.55;;
25758;SDS011;13604;52.496;13.456;2023-02-24T03:24:02;29.10;;;4.05;;
25758;SDS011;13604;52.496;13.456;2023-02-24T03:29:10;20.73;;;3.30;;
25758;SDS011;13604;52.496;13.456;2023-02-24T03:31:47;20.67;;;4.07;;
25758;SDS011;13604;52.496;13.456;2023-02-24T03:34:20;18.02;;;3.58;;
25758;SDS011;13604;52.496;13.456;2023-02-24T03:36:52;20.13;;;3.72;;
25758;SDS011;13604;52.496;13.456;2023-02-24T03:39:18;19.25;;;3.28;;
25758;SDS011;13604;52.496;13.456;2023-02-24T03:41:56;18.70;;;3.45;;
25758;SDS011;13604;52.496;13.456;2023-02-24T03:44:28;22.13;;;3.63;;
25758;SDS011;13604;52.496;13.456;2023-02-24T03:46:53;24.95;;;3.65;;
25758;SDS011;13604;52.496;13.456;2023-02-24T03:49:20;17.52;;;3.00;;
25758;SDS011;13604;52.496;13.456;2023-02-24T03:51:53;22.30;;;3.22;;
25758;SDS011;13604;52.496;13.456;2023-02-24T03:57:16;21.38;;;3.95;;
25758;SDS011;13604;52.496;13.456;2023-02-24T04:00:18;21.08;;;3.28;;
25758;SDS011;13604;52.496;13.456;2023-02-24T04:03:06;21.20;;;3.10;;
25758;SDS011;13604;52.496;13.456;2023-02-24T04:05:43;23.42;;;2.90;;
25758;SDS011;13604;52.496;13.456;2023-02-24T04:08:14;19.83;;;3.38;;
25758;SDS011;13604;52.496;13.456;2023-02-24T04:10:46;15.43;;;4.03;;
25758;SDS011;13604;52.496;13.456;2023-02-24T04:13:26;24.45;;;4.60;;
25758;SDS011;13604;52.496;13.456;2023-02-24T04:18:51;19.45;;;3.30;;
25758;SDS011;13604;52.496;13.456;2023-02-24T04:21:18;24.52;;;4.07;;
25758;SDS011;13604;52.496;13.456;2023-02-24T04:23:44;19.73;;;3.67;;
25758;SDS011;13604;52.496;13.456;2023-02-24T04:26:11;19.45;;;4.47;;
25758;SDS011;13604;52.496;13.456;2023-02-24T04:28:39;22.67;;;4.05;;
25758;SDS011;13604;52.496;13.456;2023-02-24T04:31:07;15.70;;;4.20;;
25758;SDS011;13604;52.496;13.456;2023-02-24T04:33:41;17.70;;;4.15;;
25758;SDS011;13604;52.496;13.456;2023-02-24T04:36:07;16.75;;;3.53;;
25758;SDS011;13604;52.496;13.456;2023-02-24T04:38:33;21.08;;;4.13;;
25758;SDS011;13604;52.496;13.456;2023-02-24T04:40:58;12.95;;;3.78;;
25758;SDS011;13604;52.496;13.456;2023-02-24T04:43:24;22.20;;;4.35;;
25758;SDS011;13604;52.496;13.456;2023-02-24T04:45:49;24.63;;;4.70;;
25758;SDS011;13604;52.496;13.456;2023-02-24T04:48:15;24.58;;;4.88;;
25758;SDS011;13604;52.496;13.456;2023-02-24T04:50:42;14.55;;;4.18;;
25758;SDS011;13604;52.496;13.456;2023-02-24T04:53:09;26.48;;;4.15;;
25758;SDS011;13604;52.496;13.456;2023-02-24T04:55:38;18.35;;;4.28;;
25758;SDS011;13604;52.496;13.456;2023-02-24T04:58:09;20.42;;;3.58;;
25758;SDS011;13604;52.496;13.456;2023-02-24T05:00:36;17.63;;;3.72;;
25758;SDS011;13604;52.496;13.456;2023-02-24T05:03:06;20.25;;;3.60;;
25758;SDS011;13604;52.496;13.456;2023-02-24T05:05:32;18.73;;;3.97;;
25758;SDS011;13604;52.496;13.456;2023-02-24T05:07:59;14.30;;;3.67;;
25758;SDS011;13604;52.496;13.456;2023-02-24T05:10:27;14.52;;;3.40;;
25758;SDS011;13604;52.496;13.456;2023-02-24T05:12:54;19.55;;;3.22;;
25758;SDS011;13604;52.496;13.456;2023-02-24T05:15:24;15.88;;;3.28;;
25758;SDS011;13604;52.496;13.456;2023-02-24T05:18:00;12.25;;;3.28;;
25758;SDS011;13604;52.496;13.456;2023-02-24T05:20:31;18.40;;;3.10;;
25758;SDS011;13604;52.496;13.456;2023-02-24T05:23:15;13.23;;;3.35;;
25758;SDS011;13604;52.496;13.456;2023-02-24T05:25:41;14.82;;;3.20;;
25758;SDS011;13604;52.496;13.456;2023-02-24T05:28:07;14.50;;;3.72;;
25758;SDS011;13604;52.496;13.456;2023-02-24T05:30:32;13.80;;;2.88;;
25758;SDS011;13604;52.496;13.456;2023-02-24T05:32:58;16.52;;;3.55;;
25758;SDS011;13604;52.496;13.456;2023-02-24T05:35:23;21.50;;;3.38;;
25758;SDS011;13604;52.496;13.456;2023-02-24T05:37:49;15.27;;;2.72;;
25758;SDS011;13604;52.496;13.456;2023-02-24T05:40:15;14.55;;;2.70;;
25758;SDS011;13604;52.496;13.456;2023-02-24T05:42:46;14.07;;;2.95;;
25758;SDS011;13604;52.496;13.456;2023-02-24T05:45:12;11.30;;;2.22;;
25758;SDS011;13604;52.496;13.456;2023-02-24T05:47:37;13.85;;;2.50;;
25758;SDS011;13604;52.496;13.456;2023-02-24T05:50:04;10.00;;;2.60;;
25758;SDS011;13604;52.496;13.456;2023-02-24T05:52:30;15.68;;;2.63;;
25758;SDS011;13604;52.496;13.456;2023-02-24T05:54:55;11.45;;;2.40;;
25758;SDS011;13604;52.496;13.456;2023-02-24T05:57:20;10.00;;;2.10;;
25758;SDS011;13604;52.496;13.456;2023-02-24T05:59:49;13.85;;;2.35;;
25758;SDS011;13604;52.496;13.456;2023-02-24T06:02:15;17.80;;;2.67;;
25758;SDS011;13604;52.496;13.456;2023-02-24T06:04:51;14.60;;;2.28;;
25758;SDS011;13604;52.496;13.456;2023-02-24T06:07:21;10.77;;;2.83;;
25758;SDS011;13604;52.496;13.456;2023-02-24T06:09:52;8.98;;;2.08;;
25758;SDS011;13604;52.496;13.456;2023-02-24T06:12:23;9.02;;;1.88;;
25758;SDS011;13604;52.496;13.456;2023-02-24T06:14:52;19.20;;;2.33;;
25758;SDS011;13604;52.496;13.456;2023-02-24T06:17:17;17.42;;;2.72;;
25758;SDS011;13604;52.496;13.456;2023-02-24T06:19:44;12.93;;;2.40;;
25758;SDS011;13604;52.496;13.456;2023-02-24T06:22:14;18.60;;;2.70;;
25758;SDS011;13604;52.496;13.456;2023-02-24T06:24:42;13.93;;;2.53;;
25758;SDS011;13604;52.496;13.456;2023-02-24T06:27:09;11.75;;;2.33;;
25758;SDS011;13604;52.496;13.456;2023-02-24T06:29:43;11.48;;;2.10;;
25758;SDS011;13604;52.496;13.456;2023-02-24T06:32:09;15.98;;;2.45;;
25758;SDS011;13604;52.496;13.456;2023-02-24T06:34:35;12.20;;;1.92;;
25758;SDS011;13604;52.496;13.456;2023-02-24T06:37:00;13.55;;;2.58;;
25758;SDS011;13604;52.496;13.456;2023-02-24T06:39:28;15.70;;;2.00;;
25758;SDS011;13604;52.496;13.456;2023-02-24T06:41:56;13.70;;;2.53;;
25758;SDS011;13604;52.496;13.456;2023-02-24T06:44:27;10.60;;;2.50;;
25758;SDS011;13604;52.496;13.456;2023-02-24T06:46:53;13.10;;;2.17;;
25758;SDS011;13604;52.496;13.456;2023-02-24T06:49:18;11.73;;;2.80;;
25758;SDS011;13604;52.496;13.456;2023-02-24T06:51:43;13.93;;;2.58;;
25758;SDS011;13604;52.496;13.456;2023-02-24T06:54:09;12.68;;;2.60;;
25758;SDS011;13604;52.496;13.456;2023-02-24T06:56:34;11.40;;;2.67;;
25758;SDS011;13604;52.496;13.456;2023-02-24T06:59:03;13.35;;;2.50;;
25758;SDS011;13604;52.496;13.456;2023-02-24T07:01:30;10.35;;;2.20;;
25758;SDS011;13604;52.496;13.456;2023-02-24T07:03:58;20.63;;;2.67;;
25758;SDS011;13604;52.496;13.456;2023-02-24T07:06:34;8.02;;;2.35;;
25758;SDS011;13604;52.496;13.456;2023-02-24T07:09:02;11.35;;;2.33;;
25758;SDS011;13604;52.496;13.456;2023-02-24T07:11:31;10.90;;;2.53;;
25758;SDS011;13604;52.496;13.456;2023-02-24T07:13:57;10.90;;;1.88;;
25758;SDS011;13604;52.496;13.456;2023-02-24T07:16:24;8.50;;;2.28;;
25758;SDS011;13604;52.496;13.456;2023-02-24T07:18:56;12.48;;;2.35;;
25758;SDS011;13604;52.496;13.456;2023-02-24T07:21:24;9.05;;;2.42;;
25758;SDS011;13604;52.496;13.456;2023-02-24T07:23:51;9.07;;;2.22;;
25758;SDS011;13604;52.496;13.456;2023-02-24T07:26:21;10.07;;;2.13;;
25758;SDS011;13604;52.496;13.456;2023-02-24T07:28:48;14.00;;;2.47;;
25758;SDS011;13604;52.496;13.456;2023-02-24T07:31:18;9.20;;;1.85;;
25758;SDS011;13604;52.496;13.456;2023-02-24T07:33:46;5.05;;;1.55;;
25758;SDS011;13604;52.496;13.456;2023-02-24T07:36:12;9.27;;;1.80;;
25758;SDS011;13604;52.496;13.456;2023-02-24T07:38:39;19.27;;;2.08;;
25758;SDS011;13604;52.496;13.456;2023-02-24T07:41:06;6.57;;;2.30;;
25758;SDS011;13604;52.496;13.456;2023-02-24T07:43:36;10.13;;;2.40;;
25758;SDS011;13604;52.496;13.456;2023-02-24T07:46:04;11.52;;;2.17;;
25758;SDS011;13604;52.496;13.456;2023-02-24T07:48:33;8.48;;;2.17;;
25758;SDS011;13604;52.496;13.456;2023-02-24T07:51:00;4.65;;;1.88;;
25758;SDS011;13604;52.496;13.456;2023-02-24T07:53:30;11.10;;;3.08;;
25758;SDS011;13604;52.496;13.456;2023-02-24T07:55:55;9.63;;;2.60;;
25758;SDS011;13604;52.496;13.456;2023-02-24T07:58:20;9.43;;;2.38;;
25758;SDS011;13604;52.496;13.456;2023-02-24T08:00:47;11.50;;;2.70;;
25758;SDS011;13604;52.496;13.456;2023-02-24T08:03:25;10.55;;;3.03;;
25758;SDS011;13604;52.496;13.456;2023-02-24T08:05:55;14.00;;;2.92;;
25758;SDS011;13604;52.496;13.456;2023-02-24T08:08:24;8.20;;;2.10;;
25758;SDS011;13604;52.496;13.456;2023-02-24T08:10:49;8.13;;;2.35;;
25758;SDS011;13604;52.496;13.456;2023-02-24T08:13:17;17.00;;;2.55;;
25758;SDS011;13604;52.496;13.456;2023-02-24T08:15:43;12.07;;;2.38;;
25758;SDS011;13604;52.496;13.456;2023-02-24T08:18:09;11.73;;;2.17;;
25758;SDS011;13604;52.496;13.456;2023-02-24T08:20:36;12.05;;;2.53;;
25758;SDS011;13604;52.496;13.456;2023-02-24T08:23:16;12.50;;;2.42;;
25758;SDS011;13604;52.496;13.456;2023-02-24T08:25:42;12.73;;;2.72;;
25758;SDS011;13604;52.496;13.456;2023-02-24T08:28:08;9.43;;;2.55;;
25758;SDS011;13604;52.496;13.456;2023-02-24T08:30:36;10.23;;;2.88;;
25758;SDS011;13604;52.496;13.456;2023-02-24T08:33:04;10.40;;;2.33;;
25758;SDS011;13604;52.496;13.456;2023-02-24T08:35:33;13.82;;;2.28;;
25758;SDS011;13604;52.496;13.456;2023-02-24T08:38:04;10.55;;;2.60;;
25758;SDS011;13604;52.496;13.456;2023-02-24T08:40:33;10.38;;;2.58;;
25758;SDS011;13604;52.496;13.456;2023-02-24T08:43:01;16.90;;;2.28;;
25758;SDS011;13604;52.496;13.456;2023-02-24T08:45:53;9.30;;;2.65;;
25758;SDS011;13604;52.496;13.456;2023-02-24T08:48:25;12.25;;;3.30;;
25758;SDS011;13604;52.496;13.456;2023-02-24T08:51:06;14.30;;;2.30;;
25758;SDS011;13604;52.496;13.456;2023-02-24T08:53:34;15.25;;;2.33;;
25758;SDS011;13604;52.496;13.456;2023-02-24T08:56:04;11.68;;;2.92;;
25758;SDS011;13604;52.496;13.456;2023-02-24T08:58:39;10.55;;;2.88;;
25758;SDS011;13604;52.496;13.456;2023-02-24T09:01:13;12.95;;;2.83;;
25758;SDS011;13604;52.496;13.456;2023-02-24T09:03:45;9.68;;;2.75;;
25758;SDS011;13604;52.496;13.456;2023-02-24T09:06:11;9.43;;;2.83;;
25758;SDS011;13604;52.496;13.456;2023-02-24T09:08:40;11.25;;;2.53;;
25758;SDS011;13604;52.496;13.456;2023-02-24T09:11:08;8.98;;;2.40;;
25758;SDS011;13604;52.496;13.456;2023-02-24T09:13:38;11.25;;;2.67;;
25758;SDS011;13604;52.496;13.456;2023-02-24T09:16:16;13.52;;;2.83;;
25758;SDS011;13604;52.496;13.456;2023-02-24T09:18:42;10.60;;;3.65;;
25758;SDS011;13604;52.496;13.456;2023-02-24T09:21:11;12.65;;;3.75;;
25758;SDS011;13604;52.496;13.456;2023-02-24T09:24:00;10.52;;;3.10;;
25758;SDS011;13604;52.496;13.456;2023-02-24T09:26:33;13.53;;;3.57;;
25758;SDS011;13604;52.496;13.456;2023-02-24T09:29:12;9.37;;;3.60;;
25758;SDS011;13604;52.496;13.456;2023-02-24T09:31:57;9.93;;;2.83;;
25758;SDS011;13604;52.496;13.456;2023-02-24T09:34:38;12.07;;;2.90;;
25758;SDS011;13604;52.496;13.456;2023-02-24T09:37:08;16.02;;;3.40;;
25758;SDS011;13604;52.496;13.456;2023-02-24T09:39:48;13.10;;;3.17;;
25758;SDS011;13604;52.496;13.456;2023-02-24T09:42:18;17.17;;;3.28;;
25758;SDS011;13604;52.496;13.456;2023-02-24T09:44:51;9.52;;;2.75;;
25758;SDS011;13604;52.496;13.456;2023-02-24T09:47:34;9.25;;;2.42;;
25758;SDS011;13604;52.496;13.456;2023-02-24T09:52:44;11.40;;;2.60;;
25758;SDS011;13604;52.496;13.456;2023-02-24T10:01:24;8.23;;;2.65;;
25758;SDS011;13604;52.496;13.456;2023-02-24T10:04:12;13.27;;;2.35;;
25758;SDS011;13604;52.496;13.456;2023-02-24T10:09:25;6.20;;;2.35;;
25758;SDS011;13604;52.496;13.456;2023-02-24T10:12:21;9.38;;;2.00;;
25758;SDS011;13604;52.496;13.456;2023-02-24T10:17:55;8.60;;;2.35;;
25758;SDS011;13604;52.496;13.456;2023-02-24T10:20:23;8.00;;;1.92;;
25758;SDS011;13604;52.496;13.456;2023-02-24T10:26:00;13.55;;;2.40;;
25758;SDS011;13604;52.496;13.456;2023-02-24T10:28:38;10.13;;;2.10;;
25758;SDS011;13604;52.496;13.456;2023-02-24T10:31:40;11.38;;;2.30;;
25758;SDS011;13604;52.496;13.456;2023-02-24T10:34:12;5.22;;;2.17;;
25758;SDS011;13604;52.496;13.456;2023-02-24T10:36:50;8.23;;;1.80;;
25758;SDS011;13604;52.496;13.456;2023-02-24T10:39:17;11.50;;;1.55;;
25758;SDS011;13604;52.496;13.456;2023-02-24T10:41:54;5.85;;;1.85;;
25758;SDS011;13604;52.496;13.456;2023-02-24T10:44:39;9.52;;;1.70;;
25758;SDS011;13604;52.496;13.456;2023-02-24T10:47:16;6.30;;;1.58;;
25758;SDS011;13604;52.496;13.456;2023-02-24T10:49:49;13.75;;;2.05;;
25758;SDS011;13604;52.496;13.456;2023-02-24T10:52:42;7.15;;;1.60;;
25758;SDS011;13604;52.496;13.456;2023-02-24T10:58:22;5.60;;;2.10;;
25758;SDS011;13604;52.496;13.456;2023-02-24T11:03:49;10.20;;;2.35;;
25758;SDS011;13604;52.496;13.456;2023-02-24T11:06:29;13.05;;;1.92;;
25758;SDS011;13604;52.496;13.456;2023-02-24T11:12:14;8.32;;;1.90;;
25758;SDS011;13604;52.496;13.456;2023-02-24T11:15:03;9.43;;;2.72;;
25758;SDS011;13604;52.496;13.456;2023-02-24T11:17:57;8.95;;;2.25;;
25758;SDS011;13604;52.496;13.456;2023-02-24T11:20:44;7.40;;;2.03;;
25758;SDS011;13604;52.496;13.456;2023-02-24T11:23:14;9.13;;;2.30;;
25758;SDS011;13604;52.496;13.456;2023-02-24T11:25:45;12.40;;;2.83;;
25758;SDS011;13604;52.496;13.456;2023-02-24T11:28:23;12.52;;;2.40;;
25758;SDS011;13604;52.496;13.456;2023-02-24T11:36:19;15.15;;;2.78;;
25758;SDS011;13604;52.496;13.456;2023-02-24T11:41:54;9.55;;;2.53;;
25758;SDS011;13604;52.496;13.456;2023-02-24T11:44:30;9.50;;;2.70;;
25758;SDS011;13604;52.496;13.456;2023-02-24T11:47:04;14.73;;;2.78;;
25758;SDS011;13604;52.496;13.456;2023-02-24T11:49:36;15.25;;;3.45;;
25758;SDS011;13604;52.496;13.456;2023-02-24T11:52:09;10.23;;;3.30;;
25758;SDS011;13604;52.496;13.456;2023-02-24T11:54:43;11.23;;;2.80;;
25758;SDS011;13604;52.496;13.456;2023-02-24T11:57:16;10.95;;;3.00;;
25758;SDS011;13604;52.496;13.456;2023-02-24T12:00:20;15.35;;;3.10;;
25758;SDS011;13604;52.496;13.456;2023-02-24T12:05:26;8.60;;;3.03;;
25758;SDS011;13604;52.496;13.456;2023-02-24T12:10:44;11.10;;;3.03;;
25758;SDS011;13604;52.496;13.456;2023-02-24T12:13:18;10.20;;;2.95;;
25758;SDS011;13604;52.496;13.456;2023-02-24T12:15:58;11.88;;;2.65;;
25758;SDS011;13604;52.496;13.456;2023-02-24T12:18:35;11.40;;;2.83;;
25758;SDS011;13604;52.496;13.456;2023-02-24T12:23:44;10.57;;;2.80;;
25758;SDS011;13604;52.496;13.456;2023-02-24T12:26:19;9.60;;;2.42;;
25758;SDS011;13604;52.496;13.456;2023-02-24T12:35:14;7.38;;;2.17;;
25758;SDS011;13604;52.496;13.456;2023-02-24T12:37:54;11.07;;;2.58;;
25758;SDS011;13604;52.496;13.456;2023-02-24T12:40:34;10.80;;;2.47;;
25758;SDS011;13604;52.496;13.456;2023-02-24T12:43:12;7.20;;;2.30;;
25758;SDS011;13604;52.496;13.456;2023-02-24T12:48:37;7.22;;;2.70;;
25758;SDS011;13604;52.496;13.456;2023-02-24T12:54:09;5.07;;;2.00;;
25758;SDS011;13604;52.496;13.456;2023-02-24T12:59:16;5.20;;;2.78;;
25758;SDS011;13604;52.496;13.456;2023-02-24T13:02:00;12.32;;;2.80;;
25758;SDS011;13604;52.496;13.456;2023-02-24T13:12:45;8.25;;;2.70;;
25758;SDS011;13604;52.496;13.456;2023-02-24T13:15:17;11.25;;;3.05;;
25758;SDS011;13604;52.496;13.456;2023-02-24T13:17:45;8.70;;;3.55;;
25758;SDS011;13604;52.496;13.456;2023-02-24T13:20:24;8.75;;;3.03;;
25758;SDS011;13604;52.496;13.456;2023-02-24T13:22:59;7.88;;;3.63;;
25758;SDS011;13604;52.496;13.456;2023-02-24T13:25:30;9.13;;;4.05;;
25758;SDS011;13604;52.496;13.456;2023-02-24T13:28:26;9.98;;;4.10;;
25758;SDS011;13604;52.496;13.456;2023-02-24T13:31:02;8.45;;;4.13;;
25758;SDS011;13604;52.496;13.456;2023-02-24T13:33:32;10.55;;;4.00;;
25758;SDS011;13604;52.496;13.456;2023-02-24T13:38:35;8.10;;;3.78;;
25758;SDS011;13604;52.496;13.456;2023-02-24T13:41:32;10.23;;;3.65;;
25758;SDS011;13604;52.496;13.456;2023-02-24T13:44:21;10.20;;;4.95;;
25758;SDS011;13604;52.496;13.456;2023-02-24T13:54:58;11.85;;;4.65;;
25758;SDS011;13604;52.496;13.456;2023-02-24T14:03:35;8.10;;;4.25;;
25758;SDS011;13604;52.496;13.456;2023-02-24T14:06:03;7.65;;;3.53;;
25758;SDS011;13604;52.496;13.456;2023-02-24T14:10:58;8.57;;;3.95;;
25758;SDS011;13604;52.496;13.456;2023-02-24T14:13:25;10.35;;;4.10;;
25758;SDS011;13604;52.496;13.456;2023-02-24T14:15:54;8.98;;;3.95;;
25758;SDS011;13604;52.496;13.456;2023-02-24T14:18:21;9.80;;;4.45;;
25758;SDS011;13604;52.496;13.456;2023-02-24T14:20:50;7.53;;;3.88;;
25758;SDS011;13604;52.496;13.456;2023-02-24T14:23:20;7.18;;;3.97;;
25758;SDS011;13604;52.496;13.456;2023-02-24T14:25:47;11.95;;;4.53;;
25758;SDS011;13604;52.496;13.456;2023-02-24T14:28:19;10.63;;;3.97;;
25758;SDS011;13604;52.496;13.456;2023-02-24T14:30:51;6.10;;;4.47;;
25758;SDS011;13604;52.496;13.456;2023-02-24T14:33:32;8.27;;;4.22;;
25758;SDS011;13604;52.496;13.456;2023-02-24T14:35:59;11.20;;;4.03;;
25758;SDS011;13604;52.496;13.456;2023-02-24T14:38:34;15.55;;;4.43;;
25758;SDS011;13604;52.496;13.456;2023-02-24T14:41:03;8.40;;;3.75;;
25758;SDS011;13604;52.496;13.456;2023-02-24T14:43:30;11.35;;;4.50;;
25758;SDS011;13604;52.496;13.456;2023-02-24T14:45:55;13.45;;;4.93;;
25758;SDS011;13604;52.496;13.456;2023-02-24T14:48:27;16.92;;;5.18;;
25758;SDS011;13604;52.496;13.456;2023-02-24T14:50:56;10.98;;;4.60;;
25758;SDS011;13604;52.496;13.456;2023-02-24T14:53:26;10.10;;;4.50;;
25758;SDS011;13604;52.496;13.456;2023-02-24T14:55:54;7.25;;;3.88;;
25758;SDS011;13604;52.496;13.456;2023-02-24T14:58:31;13.38;;;4.78;;
25758;SDS011;13604;52.496;13.456;2023-02-24T15:01:12;13.48;;;5.30;;
25758;SDS011;13604;52.496;13.456;2023-02-24T15:03:46;11.13;;;4.93;;
25758;SDS011;13604;52.496;13.456;2023-02-24T15:06:20;12.43;;;4.28;;
25758;SDS011;13604;52.496;13.456;2023-02-24T15:08:49;10.85;;;4.32;;
25758;SDS011;13604;52.496;13.456;2023-02-24T15:11:22;9.13;;;4.50;;
25758;SDS011;13604;52.496;13.456;2023-02-24T15:13:53;11.35;;;4.07;;
25758;SDS011;13604;52.496;13.456;2023-02-24T15:18:56;8.43;;;3.63;;
25758;SDS011;13604;52.496;13.456;2023-02-24T15:24:00;7.00;;;3.85;;
25758;SDS011;13604;52.496;13.456;2023-02-24T15:26:32;8.80;;;3.33;;
25758;SDS011;13604;52.496;13.456;2023-02-24T15:29:19;5.68;;;3.80;;
25758;SDS011;13604;52.496;13.456;2023-02-24T15:31:47;9.88;;;4.00;;
25758;SDS011;13604;52.496;13.456;2023-02-24T15:34:33;6.53;;;3.97;;
25758;SDS011;13604;52.496;13.456;2023-02-24T15:37:01;8.40;;;4.25;;
25758;SDS011;13604;52.496;13.456;2023-02-24T15:39:41;4.60;;;3.67;;
25758;SDS011;13604;52.496;13.456;2023-02-24T15:44:49;5.82;;;4.03;;
25758;SDS011;13604;52.496;13.456;2023-02-24T15:47:29;5.65;;;4.15;;
25758;SDS011;13604;52.496;13.456;2023-02-24T15:50:18;7.05;;;4.03;;
25758;SDS011;13604;52.496;13.456;2023-02-24T15:52:44;8.00;;;4.00;;
25758;SDS011;13604;52.496;13.456;2023-02-24T15:55:10;7.57;;;4.40;;
25758;SDS011;13604;52.496;13.456;2023-02-24T15:57:40;7.00;;;4.30;;
25758;SDS011;13604;52.496;13.456;2023-02-24T16:00:06;10.10;;;4.90;;
25758;SDS011;13604;52.496;13.456;2023-02-24T16:02:37;7.28;;;4.55;;
25758;SDS011;13604;52.496;13.456;2023-02-24T16:05:03;7.10;;;4.20;;
25758;SDS011;13604;52.496;13.456;2023-02-24T16:07:30;10.57;;;5.55;;
25758;SDS011;13604;52.496;13.456;2023-02-24T16:09:59;9.35;;;5.45;;
25758;SDS011;13604;52.496;13.456;2023-02-24T16:12:26;8.75;;;5.30;;
25758;SDS011;13604;52.496;13.456;2023-02-24T16:14:56;8.55;;;5.65;;
25758;SDS011;13604;52.496;13.456;2023-02-24T16:17:34;11.02;;;5.97;;
25758;SDS011;13604;52.496;13.456;2023-02-24T16:20:03;9.18;;;5.47;;
25758;SDS011;13604;52.496;13.456;2023-02-24T16:22:33;11.40;;;6.32;;
25758;SDS011;13604;52.496;13.456;2023-02-24T16:24:59;14.90;;;6.47;;
25758;SDS011;13604;52.496;13.456;2023-02-24T16:27:25;9.27;;;6.32;;
25758;SDS011;13604;52.496;13.456;2023-02-24T16:29:54;10.75;;;6.82;;
25758;SDS011;13604;52.496;13.456;2023-02-24T16:32:22;13.18;;;7.18;;
25758;SDS011;13604;52.496;13.456;2023-02-24T16:34:50;11.98;;;7.00;;
25758;SDS011;13604;52.496;13.456;2023-02-24T16:37:17;15.80;;;7.30;;
25758;SDS011;13604;52.496;13.456;2023-02-24T16:39:47;11.50;;;7.40;;
25758;SDS011;13604;52.496;13.456;2023-02-24T16:42:17;13.98;;;7.57;;